sensor_id;sensor_type;location;lat;lon;timestamp;temperature;humidity
41694;DHT22;27377;50.666;9.150;2022-12-07T00:01:27;3.00;99.90
41694;DHT22;27377;50.666;9.150;2022-12-07T00:03:55;3.00;99.90
41694;DHT22;27377;50.666;9.150;2022-12-07T00:06:26;3.00;99.90
41694;DHT22;27377;50.666;9.150;2022-12-07T00:08:52;3.00;99.90
41694;DHT22;27377;50.666;9.150;2022-12-07T00:11:19;3.00;99.90
41694;DHT22;27377;50.666;9.150;2022-12-07T00:13:46;3.00;99.90
41694;DHT22;27377;50.666;9.150;2022-12-07T00:16:14;3.00;99.90
41694;DHT22;27377;50.666;9.150;2022-12-07T00:18:43;3.00;99.90
41694;DHT22;27377;50.666;9.150;2022-12-07T00:21:12;3.10;99.90
41694;DHT22;27377;50.666;9.150;2022-12-07T00:23:39;3.00;99.90
41694;DHT22;27377;50.666;9.150;2022-12-07T00:26:10;3.10;99.90
41694;DHT22;27377;50.666;9.150;2022-12-07T00:28:36;3.10;99.90
41694;DHT22;27377;50.666;9.150;2022-12-07T00:31:10;3.10;99.90
41694;DHT22;27377;50.666;9.150;2022-12-07T00:33:39;3.10;99.90
41694;DHT22;27377;50.666;9.150;2022-12-07T00:36:11;3.10;99.90
41694;DHT22;27377;50.666;9.150;2022-12-07T00:38:37;3.10;99.90
41694;DHT22;27377;50.666;9.150;2022-12-07T00:41:12;3.10;99.90
41694;DHT22;27377;50.666;9.150;2022-12-07T00:43:39;3.10;99.90
41694;DHT22;27377;50.666;9.150;2022-12-07T00:46:05;3.10;99.90
41694;DHT22;27377;50.666;9.150;2022-12-07T00:48:31;3.10;99.90
41694;DHT22;27377;50.666;9.150;2022-12-07T00:50:59;3.10;99.90
41694;DHT22;27377;50.666;9.150;2022-12-07T00:53:26;3.20;99.90
41694;DHT22;27377;50.666;9.150;2022-12-07T00:55:51;3.10;99.90
41694;DHT22;27377;50.666;9.150;2022-12-07T00:58:18;3.10;99.90
41694;DHT22;27377;50.666;9.150;2022-12-07T01:00:44;3.10;99.90
41694;DHT22;27377;50.666;9.150;2022-12-07T01:03:11;3.20;99.90
41694;DHT22;27377;50.666;9.150;2022-12-07T01:05:37;3.20;99.90
41694;DHT22;27377;50.666;9.150;2022-12-07T01:08:04;3.20;99.90
41694;DHT22;27377;50.666;9.150;2022-12-07T01:10:30;3.20;99.90
41694;DHT22;27377;50.666;9.150;2022-12-07T01:12:57;3.20;99.90
41694;DHT22;27377;50.666;9.150;2022-12-07T01:15:24;3.20;99.90
41694;DHT22;27377;50.666;9.150;2022-12-07T01:17:50;3.20;99.90
41694;DHT22;27377;50.666;9.150;2022-12-07T01:20:16;3.20;99.90
41694;DHT22;27377;50.666;9.150;2022-12-07T01:22:43;3.20;99.90
41694;DHT22;27377;50.666;9.150;2022-12-07T01:25:10;3.20;99.90
41694;DHT22;27377;50.666;9.150;2022-12-07T01:27:36;3.20;99.90
41694;DHT22;27377;50.666;9.150;2022-12-07T01:30:04;3.20;99.90
41694;DHT22;27377;50.666;9.150;2022-12-07T01:32:30;3.30;99.90
41694;DHT22;27377;50.666;9.150;2022-12-07T01:34:55;3.20;99.90
41694;DHT22;27377;50.666;9.150;2022-12-07T01:37:21;3.20;99.90
41694;DHT22;27377;50.666;9.150;2022-12-07T01:39:50;3.20;99.90
41694;DHT22;27377;50.666;9.150;2022-12-07T01:42:16;3.30;99.90
41694;DHT22;27377;50.666;9.150;2022-12-07T01:47:51;3.30;99.90
41694;DHT22;27377;50.666;9.150;2022-12-07T01:50:18;3.30;99.90
41694;DHT22;27377;50.666;9.150;2022-12-07T01:52:46;3.30;99.90
41694;DHT22;27377;50.666;9.150;2022-12-07T01:55:16;3.30;99.90
41694;DHT22;27377;50.666;9.150;2022-12-07T01:57:52;3.30;99.90
41694;DHT22;27377;50.666;9.150;2022-12-07T02:00:18;3.30;99.90
41694;DHT22;27377;50.666;9.150;2022-12-07T02:02:55;3.30;99.90
41694;DHT22;27377;50.666;9.150;2022-12-07T02:05:23;3.30;99.90
41694;DHT22;27377;50.666;9.150;2022-12-07T02:07:51;3.30;99.90
41694;DHT22;27377;50.666;9.150;2022-12-07T02:10:24;3.40;99.90
41694;DHT22;27377;50.666;9.150;2022-12-07T02:12:54;3.40;99.90
41694;DHT22;27377;50.666;9.150;2022-12-07T02:15:22;3.30;99.90
41694;DHT22;27377;50.666;9.150;2022-12-07T02:18:23;3.40;99.90
41694;DHT22;27377;50.666;9.150;2022-12-07T02:21:08;3.40;99.90
41694;DHT22;27377;50.666;9.150;2022-12-07T02:24:13;3.30;99.90
41694;DHT22;27377;50.666;9.150;2022-12-07T02:26:50;3.40;99.90
41694;DHT22;27377;50.666;9.150;2022-12-07T02:29:27;3.40;99.90
41694;DHT22;27377;50.666;9.150;2022-12-07T02:37:54;3.40;99.90
41694;DHT22;27377;50.666;9.150;2022-12-07T02:43:12;3.40;99.90
41694;DHT22;27377;50.666;9.150;2022-12-07T02:45:41;3.40;99.90
41694;DHT22;27377;50.666;9.150;2022-12-07T02:48:10;3.30;99.90
41694;DHT22;27377;50.666;9.150;2022-12-07T02:50:37;3.40;99.90
41694;DHT22;27377;50.666;9.150;2022-12-07T02:53:02;3.40;99.90
41694;DHT22;27377;50.666;9.150;2022-12-07T02:55:35;3.40;99.90
41694;DHT22;27377;50.666;9.150;2022-12-07T02:58:22;3.40;99.90
41694;DHT22;27377;50.666;9.150;2022-12-07T03:04:03;3.40;99.90
41694;DHT22;27377;50.666;9.150;2022-12-07T03:06:38;3.40;99.90
41694;DHT22;27377;50.666;9.150;2022-12-07T03:09:32;3.40;99.90
41694;DHT22;27377;50.666;9.150;2022-12-07T03:12:18;3.40;99.90
41694;DHT22;27377;50.666;9.150;2022-12-07T03:14:57;3.40;99.90
41694;DHT22;27377;50.666;9.150;2022-12-07T03:17:27;3.40;99.90
41694;DHT22;27377;50.666;9.150;2022-12-07T03:19:58;3.40;99.90
41694;DHT22;27377;50.666;9.150;2022-12-07T03:22:25;3.40;99.90
41694;DHT22;27377;50.666;9.150;2022-12-07T03:25:00;3.40;99.90
41694;DHT22;27377;50.666;9.150;2022-12-07T03:27:37;3.40;99.90
41694;DHT22;27377;50.666;9.150;2022-12-07T03:30:13;3.40;99.90
41694;DHT22;27377;50.666;9.150;2022-12-07T03:32:43;3.40;99.90
41694;DHT22;27377;50.666;9.150;2022-12-07T03:38:11;3.50;99.90
41694;DHT22;27377;50.666;9.150;2022-12-07T03:40:55;3.50;99.90
41694;DHT22;27377;50.666;9.150;2022-12-07T03:43:23;3.50;99.90
41694;DHT22;27377;50.666;9.150;2022-12-07T03:46:17;3.40;99.90
41694;DHT22;27377;50.666;9.150;2022-12-07T03:54:15;3.40;99.90
41694;DHT22;27377;50.666;9.150;2022-12-07T03:56:46;3.40;99.90
41694;DHT22;27377;50.666;9.150;2022-12-07T03:59:13;3.40;99.90
41694;DHT22;27377;50.666;9.150;2022-12-07T04:01:42;3.40;99.90
41694;DHT22;27377;50.666;9.150;2022-12-07T04:04:07;3.40;99.90
41694;DHT22;27377;50.666;9.150;2022-12-07T04:06:33;3.40;99.90
41694;DHT22;27377;50.666;9.150;2022-12-07T04:08:59;3.50;99.90
41694;DHT22;27377;50.666;9.150;2022-12-07T04:11:24;3.40;99.90
41694;DHT22;27377;50.666;9.150;2022-12-07T04:13:50;3.40;99.90
41694;DHT22;27377;50.666;9.150;2022-12-07T04:16:34;3.50;99.90
41694;DHT22;27377;50.666;9.150;2022-12-07T04:18:59;3.40;99.90
41694;DHT22;27377;50.666;9.150;2022-12-07T04:21:25;3.50;99.90
41694;DHT22;27377;50.666;9.150;2022-12-07T04:23:50;3.50;99.90
41694;DHT22;27377;50.666;9.150;2022-12-07T04:26:16;3.50;99.90
41694;DHT22;27377;50.666;9.150;2022-12-07T04:28:41;3.50;99.90
41694;DHT22;27377;50.666;9.150;2022-12-07T04:31:07;3.50;99.90
41694;DHT22;27377;50.666;9.150;2022-12-07T04:33:32;3.50;99.90
41694;DHT22;27377;50.666;9.150;2022-12-07T04:35:58;3.50;99.90
41694;DHT22;27377;50.666;9.150;2022-12-07T04:38:23;3.40;99.90
41694;DHT22;27377;50.666;9.150;2022-12-07T04:40:49;3.50;99.90
41694;DHT22;27377;50.666;9.150;2022-12-07T04:43:15;3.40;99.90
41694;DHT22;27377;50.666;9.150;2022-12-07T04:45:45;3.50;99.90
41694;DHT22;27377;50.666;9.150;2022-12-07T04:48:11;3.50;99.90
41694;DHT22;27377;50.666;9.150;2022-12-07T04:50:37;3.50;99.90
41694;DHT22;27377;50.666;9.150;2022-12-07T04:53:03;3.50;99.90
41694;DHT22;27377;50.666;9.150;2022-12-07T04:55:29;3.50;99.90
41694;DHT22;27377;50.666;9.150;2022-12-07T04:57:54;3.50;99.90
41694;DHT22;27377;50.666;9.150;2022-12-07T05:00:20;3.50;99.90
41694;DHT22;27377;50.666;9.150;2022-12-07T05:02:45;3.50;99.90
41694;DHT22;27377;50.666;9.150;2022-12-07T05:05:11;3.50;99.90
41694;DHT22;27377;50.666;9.150;2022-12-07T05:07:37;3.50;99.90
41694;DHT22;27377;50.666;9.150;2022-12-07T05:10:02;3.50;99.90
41694;DHT22;27377;50.666;9.150;2022-12-07T05:12:28;3.50;99.90
41694;DHT22;27377;50.666;9.150;2022-12-07T05:14:54;3.50;99.90
41694;DHT22;27377;50.666;9.150;2022-12-07T05:17:19;3.50;99.90
41694;DHT22;27377;50.666;9.150;2022-12-07T05:19:45;3.50;99.90
41694;DHT22;27377;50.666;9.150;2022-12-07T05:22:10;3.50;99.90
41694;DHT22;27377;50.666;9.150;2022-12-07T05:24:36;3.50;99.90
41694;DHT22;27377;50.666;9.150;2022-12-07T05:27:01;3.50;99.90
41694;DHT22;27377;50.666;9.150;2022-12-07T05:29:27;3.50;99.90
41694;DHT22;27377;50.666;9.150;2022-12-07T05:31:52;3.50;99.90
41694;DHT22;27377;50.666;9.150;2022-12-07T05:34:18;3.50;99.90
41694;DHT22;27377;50.666;9.150;2022-12-07T05:36:43;3.50;99.90
41694;DHT22;27377;50.666;9.150;2022-12-07T05:39:10;3.50;99.90
41694;DHT22;27377;50.666;9.150;2022-12-07T05:41:35;3.50;99.90
41694;DHT22;27377;50.666;9.150;2022-12-07T05:44:20;3.50;99.90
41694;DHT22;27377;50.666;9.150;2022-12-07T05:46:45;3.50;99.90
41694;DHT22;27377;50.666;9.150;2022-12-07T05:49:11;3.50;99.90
41694;DHT22;27377;50.666;9.150;2022-12-07T05:51:36;3.50;99.90
41694;DHT22;27377;50.666;9.150;2022-12-07T05:54:02;3.50;99.90
41694;DHT22;27377;50.666;9.150;2022-12-07T05:56:28;3.60;99.90
41694;DHT22;27377;50.666;9.150;2022-12-07T05:58:54;3.60;99.90
41694;DHT22;27377;50.666;9.150;2022-12-07T06:01:41;3.60;99.90
41694;DHT22;27377;50.666;9.150;2022-12-07T06:04:07;3.50;99.90
41694;DHT22;27377;50.666;9.150;2022-12-07T06:06:33;3.60;99.90
41694;DHT22;27377;50.666;9.150;2022-12-07T06:08:59;3.60;99.90
41694;DHT22;27377;50.666;9.150;2022-12-07T06:11:24;3.60;99.90
41694;DHT22;27377;50.666;9.150;2022-12-07T06:14:09;3.60;99.90
41694;DHT22;27377;50.666;9.150;2022-12-07T06:16:34;3.60;99.90
41694;DHT22;27377;50.666;9.150;2022-12-07T06:19:03;3.60;99.90
41694;DHT22;27377;50.666;9.150;2022-12-07T06:21:29;3.60;99.90
41694;DHT22;27377;50.666;9.150;2022-12-07T06:23:55;3.60;99.90
41694;DHT22;27377;50.666;9.150;2022-12-07T06:26:21;3.60;99.90
41694;DHT22;27377;50.666;9.150;2022-12-07T06:28:46;3.60;99.90
41694;DHT22;27377;50.666;9.150;2022-12-07T06:31:12;3.60;99.90
41694;DHT22;27377;50.666;9.150;2022-12-07T06:33:37;3.60;99.90
41694;DHT22;27377;50.666;9.150;2022-12-07T06:36:03;3.60;99.90
41694;DHT22;27377;50.666;9.150;2022-12-07T06:38:29;3.60;99.90
41694;DHT22;27377;50.666;9.150;2022-12-07T06:40:55;3.60;99.90
41694;DHT22;27377;50.666;9.150;2022-12-07T06:43:21;3.60;99.90
41694;DHT22;27377;50.666;9.150;2022-12-07T06:45:47;3.60;99.90
41694;DHT22;27377;50.666;9.150;2022-12-07T06:48:13;3.60;99.90
41694;DHT22;27377;50.666;9.150;2022-12-07T06:50:39;3.60;99.90
41694;DHT22;27377;50.666;9.150;2022-12-07T06:53:05;3.60;99.90
41694;DHT22;27377;50.666;9.150;2022-12-07T06:55:31;3.60;99.90
41694;DHT22;27377;50.666;9.150;2022-12-07T06:57:56;3.70;99.90
41694;DHT22;27377;50.666;9.150;2022-12-07T07:00:25;3.60;99.90
41694;DHT22;27377;50.666;9.150;2022-12-07T07:02:52;3.60;99.90
41694;DHT22;27377;50.666;9.150;2022-12-07T07:05:17;3.60;99.90
41694;DHT22;27377;50.666;9.150;2022-12-07T07:07:43;3.60;99.90
41694;DHT22;27377;50.666;9.150;2022-12-07T07:10:13;3.60;99.90
41694;DHT22;27377;50.666;9.150;2022-12-07T07:12:39;3.60;99.90
41694;DHT22;27377;50.666;9.150;2022-12-07T07:15:05;3.60;99.90
41694;DHT22;27377;50.666;9.150;2022-12-07T07:17:30;3.60;99.90
41694;DHT22;27377;50.666;9.150;2022-12-07T07:19:56;3.60;99.90
41694;DHT22;27377;50.666;9.150;2022-12-07T07:22:22;3.60;99.90
41694;DHT22;27377;50.666;9.150;2022-12-07T07:24:51;3.60;99.90
41694;DHT22;27377;50.666;9.150;2022-12-07T07:27:16;3.60;99.90
41694;DHT22;27377;50.666;9.150;2022-12-07T07:29:42;3.60;99.90
41694;DHT22;27377;50.666;9.150;2022-12-07T07:32:08;3.60;99.90
41694;DHT22;27377;50.666;9.150;2022-12-07T07:34:34;3.60;99.90
41694;DHT22;27377;50.666;9.150;2022-12-07T07:37:00;3.60;99.90
41694;DHT22;27377;50.666;9.150;2022-12-07T07:39:26;3.60;99.90
41694;DHT22;27377;50.666;9.150;2022-12-07T07:41:54;3.60;99.90
41694;DHT22;27377;50.666;9.150;2022-12-07T07:44:20;3.60;99.90
41694;DHT22;27377;50.666;9.150;2022-12-07T07:46:45;3.70;99.90
41694;DHT22;27377;50.666;9.150;2022-12-07T07:49:11;3.70;99.90
41694;DHT22;27377;50.666;9.150;2022-12-07T07:51:37;3.70;99.90
41694;DHT22;27377;50.666;9.150;2022-12-07T07:54:03;3.70;99.90
41694;DHT22;27377;50.666;9.150;2022-12-07T07:56:29;3.70;99.90
41694;DHT22;27377;50.666;9.150;2022-12-07T07:58:55;3.70;99.90
41694;DHT22;27377;50.666;9.150;2022-12-07T08:01:20;3.70;99.90
41694;DHT22;27377;50.666;9.150;2022-12-07T08:03:46;3.70;99.90
41694;DHT22;27377;50.666;9.150;2022-12-07T08:06:12;3.70;99.90
41694;DHT22;27377;50.666;9.150;2022-12-07T08:08:38;3.70;99.90
41694;DHT22;27377;50.666;9.150;2022-12-07T08:11:08;3.70;99.90
41694;DHT22;27377;50.666;9.150;2022-12-07T08:13:36;3.70;99.90
41694;DHT22;27377;50.666;9.150;2022-12-07T08:16:07;3.70;99.90
41694;DHT22;27377;50.666;9.150;2022-12-07T08:18:38;3.70;99.90
41694;DHT22;27377;50.666;9.150;2022-12-07T08:21:05;3.70;99.90
41694;DHT22;27377;50.666;9.150;2022-12-07T08:23:31;3.70;99.90
41694;DHT22;27377;50.666;9.150;2022-12-07T08:26:04;3.70;99.90
41694;DHT22;27377;50.666;9.150;2022-12-07T08:28:31;3.70;99.90
41694;DHT22;27377;50.666;9.150;2022-12-07T08:31:04;3.70;99.90
41694;DHT22;27377;50.666;9.150;2022-12-07T08:33:29;3.70;99.90
41694;DHT22;27377;50.666;9.150;2022-12-07T08:36:03;3.70;99.90
41694;DHT22;27377;50.666;9.150;2022-12-07T08:38:28;3.70;99.90
41694;DHT22;27377;50.666;9.150;2022-12-07T08:40:58;3.80;99.90
41694;DHT22;27377;50.666;9.150;2022-12-07T08:43:24;3.80;99.90
41694;DHT22;27377;50.666;9.150;2022-12-07T08:48:34;3.80;99.90
41694;DHT22;27377;50.666;9.150;2022-12-07T08:51:02;3.80;99.90
41694;DHT22;27377;50.666;9.150;2022-12-07T08:53:28;3.80;99.90
41694;DHT22;27377;50.666;9.150;2022-12-07T08:55:55;3.80;99.90
41694;DHT22;27377;50.666;9.150;2022-12-07T08:58:21;3.80;99.90
41694;DHT22;27377;50.666;9.150;2022-12-07T09:00:47;3.80;99.90
41694;DHT22;27377;50.666;9.150;2022-12-07T09:03:12;3.80;99.90
41694;DHT22;27377;50.666;9.150;2022-12-07T09:05:38;3.80;99.90
41694;DHT22;27377;50.666;9.150;2022-12-07T09:08:04;3.80;99.90
41694;DHT22;27377;50.666;9.150;2022-12-07T09:10:30;3.90;99.90
41694;DHT22;27377;50.666;9.150;2022-12-07T09:12:56;3.80;99.90
41694;DHT22;27377;50.666;9.150;2022-12-07T09:15:26;3.80;99.90
41694;DHT22;27377;50.666;9.150;2022-12-07T09:17:53;3.90;99.90
41694;DHT22;27377;50.666;9.150;2022-12-07T09:20:18;3.80;99.90
41694;DHT22;27377;50.666;9.150;2022-12-07T09:22:44;3.80;99.90
41694;DHT22;27377;50.666;9.150;2022-12-07T09:25:09;3.90;99.90
41694;DHT22;27377;50.666;9.150;2022-12-07T09:27:35;3.90;99.90
41694;DHT22;27377;50.666;9.150;2022-12-07T09:30:01;3.90;99.90
41694;DHT22;27377;50.666;9.150;2022-12-07T09:32:26;3.90;99.90
41694;DHT22;27377;50.666;9.150;2022-12-07T09:34:52;3.90;99.90
41694;DHT22;27377;50.666;9.150;2022-12-07T09:37:17;3.90;99.90
41694;DHT22;27377;50.666;9.150;2022-12-07T09:39:43;3.90;99.90
41694;DHT22;27377;50.666;9.150;2022-12-07T09:42:11;3.90;99.90
41694;DHT22;27377;50.666;9.150;2022-12-07T09:44:41;3.90;99.90
41694;DHT22;27377;50.666;9.150;2022-12-07T09:47:09;3.90;99.90
41694;DHT22;27377;50.666;9.150;2022-12-07T09:49:35;3.90;99.90
41694;DHT22;27377;50.666;9.150;2022-12-07T09:52:02;3.90;99.90
41694;DHT22;27377;50.666;9.150;2022-12-07T09:54:29;4.00;99.90
41694;DHT22;27377;50.666;9.150;2022-12-07T09:56:56;4.00;99.90
41694;DHT22;27377;50.666;9.150;2022-12-07T09:59:21;4.00;99.90
41694;DHT22;27377;50.666;9.150;2022-12-07T10:01:49;4.00;99.90
41694;DHT22;27377;50.666;9.150;2022-12-07T10:04:18;4.00;99.90
41694;DHT22;27377;50.666;9.150;2022-12-07T10:06:44;4.00;99.90
41694;DHT22;27377;50.666;9.150;2022-12-07T10:09:16;4.00;99.90
41694;DHT22;27377;50.666;9.150;2022-12-07T10:14:29;4.10;99.90
41694;DHT22;27377;50.666;9.150;2022-12-07T10:16:55;4.10;99.90
41694;DHT22;27377;50.666;9.150;2022-12-07T10:19:32;4.10;99.90
41694;DHT22;27377;50.666;9.150;2022-12-07T10:22:13;4.10;99.90
41694;DHT22;27377;50.666;9.150;2022-12-07T10:24:41;4.10;99.90
41694;DHT22;27377;50.666;9.150;2022-12-07T10:27:31;4.10;99.90
41694;DHT22;27377;50.666;9.150;2022-12-07T10:29:58;4.20;99.90
41694;DHT22;27377;50.666;9.150;2022-12-07T10:35:21;4.10;99.90
41694;DHT22;27377;50.666;9.150;2022-12-07T10:37:48;4.10;99.90
41694;DHT22;27377;50.666;9.150;2022-12-07T10:43:24;4.20;99.90
41694;DHT22;27377;50.666;9.150;2022-12-07T10:48:25;4.20;99.90
41694;DHT22;27377;50.666;9.150;2022-12-07T10:54:09;4.20;99.90
41694;DHT22;27377;50.666;9.150;2022-12-07T10:56:48;4.20;99.90
41694;DHT22;27377;50.666;9.150;2022-12-07T11:02:02;4.20;99.90
41694;DHT22;27377;50.666;9.150;2022-12-07T11:04:55;4.20;99.90
41694;DHT22;27377;50.666;9.150;2022-12-07T11:10:30;4.30;99.90
41694;DHT22;27377;50.666;9.150;2022-12-07T11:13:28;4.30;99.90
41694;DHT22;27377;50.666;9.150;2022-12-07T11:16:18;4.30;99.90
41694;DHT22;27377;50.666;9.150;2022-12-07T11:24:06;4.40;99.90
41694;DHT22;27377;50.666;9.150;2022-12-07T11:27:15;4.40;99.90
41694;DHT22;27377;50.666;9.150;2022-12-07T11:30:01;4.40;99.90
41694;DHT22;27377;50.666;9.150;2022-12-07T11:33:06;4.40;99.90
41694;DHT22;27377;50.666;9.150;2022-12-07T11:38:17;4.40;99.90
41694;DHT22;27377;50.666;9.150;2022-12-07T11:40:51;4.40;99.90
41694;DHT22;27377;50.666;9.150;2022-12-07T11:43:32;4.50;99.90
41694;DHT22;27377;50.666;9.150;2022-12-07T11:46:07;4.50;99.90
41694;DHT22;27377;50.666;9.150;2022-12-07T11:49:01;4.50;99.90
41694;DHT22;27377;50.666;9.150;2022-12-07T11:51:23;4.50;99.90
41694;DHT22;27377;50.666;9.150;2022-12-07T11:56:21;4.50;99.90
41694;DHT22;27377;50.666;9.150;2022-12-07T12:01:22;4.50;99.90
41694;DHT22;27377;50.666;9.150;2022-12-07T12:03:53;4.50;99.90
41694;DHT22;27377;50.666;9.150;2022-12-07T12:06:22;4.50;99.90
41694;DHT22;27377;50.666;9.150;2022-12-07T12:12:35;4.50;99.90
41694;DHT22;27377;50.666;9.150;2022-12-07T12:15:15;4.60;99.90
41694;DHT22;27377;50.666;9.150;2022-12-07T12:21:04;4.70;99.90
41694;DHT22;27377;50.666;9.150;2022-12-07T12:23:55;4.70;99.90
41694;DHT22;27377;50.666;9.150;2022-12-07T12:26:26;4.70;99.90
41694;DHT22;27377;50.666;9.150;2022-12-07T12:29:02;4.80;99.90
41694;DHT22;27377;50.666;9.150;2022-12-07T12:31:31;4.80;99.90
41694;DHT22;27377;50.666;9.150;2022-12-07T12:34:00;4.80;99.90
41694;DHT22;27377;50.666;9.150;2022-12-07T12:36:44;4.80;99.90
41694;DHT22;27377;50.666;9.150;2022-12-07T12:39:15;4.80;99.90
41694;DHT22;27377;50.666;9.150;2022-12-07T12:51:56;4.60;99.90
41694;DHT22;27377;50.666;9.150;2022-12-07T12:54:27;4.60;99.90
41694;DHT22;27377;50.666;9.150;2022-12-07T12:57:14;4.70;99.90
41694;DHT22;27377;50.666;9.150;2022-12-07T13:07:53;4.60;99.90
41694;DHT22;27377;50.666;9.150;2022-12-07T13:15:51;4.60;99.90
41694;DHT22;27377;50.666;9.150;2022-12-07T13:21:01;4.60;99.90
41694;DHT22;27377;50.666;9.150;2022-12-07T13:23:37;4.60;99.90
41694;DHT22;27377;50.666;9.150;2022-12-07T13:31:39;4.60;99.90
41694;DHT22;27377;50.666;9.150;2022-12-07T13:34:34;4.60;99.90
41694;DHT22;27377;50.666;9.150;2022-12-07T13:37:19;4.60;99.90
41694;DHT22;27377;50.666;9.150;2022-12-07T13:42:26;4.60;99.90
41694;DHT22;27377;50.666;9.150;2022-12-07T13:44:53;4.70;99.90
41694;DHT22;27377;50.666;9.150;2022-12-07T13:47:45;4.60;99.90
41694;DHT22;27377;50.666;9.150;2022-12-07T13:50:28;4.60;99.90
41694;DHT22;27377;50.666;9.150;2022-12-07T13:52:56;4.60;99.90
41694;DHT22;27377;50.666;9.150;2022-12-07T13:55:26;4.60;99.90
41694;DHT22;27377;50.666;9.150;2022-12-07T13:57:53;4.60;99.90
41694;DHT22;27377;50.666;9.150;2022-12-07T14:00:24;4.60;99.90
41694;DHT22;27377;50.666;9.150;2022-12-07T14:08:21;4.60;99.90
41694;DHT22;27377;50.666;9.150;2022-12-07T14:16:00;4.60;99.90
41694;DHT22;27377;50.666;9.150;2022-12-07T14:18:28;4.60;99.90
41694;DHT22;27377;50.666;9.150;2022-12-07T14:23:37;4.60;99.90
41694;DHT22;27377;50.666;9.150;2022-12-07T14:26:20;4.60;99.90
41694;DHT22;27377;50.666;9.150;2022-12-07T14:28:46;4.60;99.90
41694;DHT22;27377;50.666;9.150;2022-12-07T14:31:22;4.60;99.90
41694;DHT22;27377;50.666;9.150;2022-12-07T14:33:51;4.60;99.90
41694;DHT22;27377;50.666;9.150;2022-12-07T14:36:17;4.60;99.90
41694;DHT22;27377;50.666;9.150;2022-12-07T14:38:42;4.60;99.90
41694;DHT22;27377;50.666;9.150;2022-12-07T14:41:17;4.60;99.90
41694;DHT22;27377;50.666;9.150;2022-12-07T14:44:12;4.60;99.90
41694;DHT22;27377;50.666;9.150;2022-12-07T14:46:42;4.60;99.90
41694;DHT22;27377;50.666;9.150;2022-12-07T14:49:08;4.60;99.90
41694;DHT22;27377;50.666;9.150;2022-12-07T14:51:36;4.50;99.90
41694;DHT22;27377;50.666;9.150;2022-12-07T14:54:04;4.60;99.90
41694;DHT22;27377;50.666;9.150;2022-12-07T14:56:33;4.60;99.90
41694;DHT22;27377;50.666;9.150;2022-12-07T14:58:59;4.50;99.90
41694;DHT22;27377;50.666;9.150;2022-12-07T15:01:24;4.60;99.90
41694;DHT22;27377;50.666;9.150;2022-12-07T15:03:50;4.50;99.90
41694;DHT22;27377;50.666;9.150;2022-12-07T15:06:17;4.60;99.90
41694;DHT22;27377;50.666;9.150;2022-12-07T15:08:44;4.50;99.90
41694;DHT22;27377;50.666;9.150;2022-12-07T15:11:15;4.50;99.90
41694;DHT22;27377;50.666;9.150;2022-12-07T15:13:40;4.50;99.90
41694;DHT22;27377;50.666;9.150;2022-12-07T15:16:25;4.60;99.90
41694;DHT22;27377;50.666;9.150;2022-12-07T15:18:51;4.50;99.90
41694;DHT22;27377;50.666;9.150;2022-12-07T15:21:17;4.60;99.90
41694;DHT22;27377;50.666;9.150;2022-12-07T15:23:46;4.50;99.90
41694;DHT22;27377;50.666;9.150;2022-12-07T15:26:13;4.50;99.90
41694;DHT22;27377;50.666;9.150;2022-12-07T15:28:39;4.50;99.90
41694;DHT22;27377;50.666;9.150;2022-12-07T15:31:11;4.50;99.90
41694;DHT22;27377;50.666;9.150;2022-12-07T15:33:37;4.50;99.90
41694;DHT22;27377;50.666;9.150;2022-12-07T15:36:03;4.50;99.90
41694;DHT22;27377;50.666;9.150;2022-12-07T15:38:29;4.50;99.90
41694;DHT22;27377;50.666;9.150;2022-12-07T15:40:56;4.50;99.90
41694;DHT22;27377;50.666;9.150;2022-12-07T15:43:22;4.50;99.90
41694;DHT22;27377;50.666;9.150;2022-12-07T15:46:37;4.50;99.90
41694;DHT22;27377;50.666;9.150;2022-12-07T15:49:04;4.50;99.90
41694;DHT22;27377;50.666;9.150;2022-12-07T15:51:31;4.50;99.90
41694;DHT22;27377;50.666;9.150;2022-12-07T15:53:57;4.50;99.90
41694;DHT22;27377;50.666;9.150;2022-12-07T15:56:23;4.50;99.90
41694;DHT22;27377;50.666;9.150;2022-12-07T15:58:49;4.50;99.90
41694;DHT22;27377;50.666;9.150;2022-12-07T16:01:18;4.50;99.90
41694;DHT22;27377;50.666;9.150;2022-12-07T16:03:44;4.40;99.90
41694;DHT22;27377;50.666;9.150;2022-12-07T16:06:10;4.40;99.90
41694;DHT22;27377;50.666;9.150;2022-12-07T16:08:36;4.40;99.90
41694;DHT22;27377;50.666;9.150;2022-12-07T16:11:05;4.40;99.90
41694;DHT22;27377;50.666;9.150;2022-12-07T16:13:32;4.40;99.90
41694;DHT22;27377;50.666;9.150;2022-12-07T16:15:57;4.40;99.90
41694;DHT22;27377;50.666;9.150;2022-12-07T16:18:23;4.40;99.90
41694;DHT22;27377;50.666;9.150;2022-12-07T16:20:49;4.40;99.90
41694;DHT22;27377;50.666;9.150;2022-12-07T16:23:15;4.40;99.90
41694;DHT22;27377;50.666;9.150;2022-12-07T16:25:40;4.40;99.90
41694;DHT22;27377;50.666;9.150;2022-12-07T16:28:07;4.40;99.90
41694;DHT22;27377;50.666;9.150;2022-12-07T16:30:33;4.40;99.90
41694;DHT22;27377;50.666;9.150;2022-12-07T16:32:58;4.40;99.90
41694;DHT22;27377;50.666;9.150;2022-12-07T16:35:24;4.30;99.90
41694;DHT22;27377;50.666;9.150;2022-12-07T16:37:50;4.40;99.90
41694;DHT22;27377;50.666;9.150;2022-12-07T16:40:15;4.30;99.90
41694;DHT22;27377;50.666;9.150;2022-12-07T16:42:41;4.30;99.90
41694;DHT22;27377;50.666;9.150;2022-12-07T16:45:07;4.30;99.90
41694;DHT22;27377;50.666;9.150;2022-12-07T16:47:32;4.30;99.90
41694;DHT22;27377;50.666;9.150;2022-12-07T16:49:58;4.30;99.90
41694;DHT22;27377;50.666;9.150;2022-12-07T16:52:24;4.30;99.90
41694;DHT22;27377;50.666;9.150;2022-12-07T16:54:49;4.30;99.90
41694;DHT22;27377;50.666;9.150;2022-12-07T16:57:16;4.20;99.90
41694;DHT22;27377;50.666;9.150;2022-12-07T16:59:42;4.30;99.90
41694;DHT22;27377;50.666;9.150;2022-12-07T17:02:11;4.20;99.90
41694;DHT22;27377;50.666;9.150;2022-12-07T17:04:37;4.20;99.90
41694;DHT22;27377;50.666;9.150;2022-12-07T17:07:05;4.20;99.90
41694;DHT22;27377;50.666;9.150;2022-12-07T17:09:31;4.20;99.90
41694;DHT22;27377;50.666;9.150;2022-12-07T17:11:57;4.20;99.90
41694;DHT22;27377;50.666;9.150;2022-12-07T17:14:22;4.20;99.90
41694;DHT22;27377;50.666;9.150;2022-12-07T17:17:07;4.10;99.90
41694;DHT22;27377;50.666;9.150;2022-12-07T17:19:32;4.10;99.90
41694;DHT22;27377;50.666;9.150;2022-12-07T17:21:58;4.10;99.90
41694;DHT22;27377;50.666;9.150;2022-12-07T17:24:24;4.10;99.90
41694;DHT22;27377;50.666;9.150;2022-12-07T17:26:49;4.10;99.90
41694;DHT22;27377;50.666;9.150;2022-12-07T17:29:17;4.10;99.90
41694;DHT22;27377;50.666;9.150;2022-12-07T17:31:42;4.10;99.90
41694;DHT22;27377;50.666;9.150;2022-12-07T17:34:13;4.10;99.90
41694;DHT22;27377;50.666;9.150;2022-12-07T17:36:39;4.10;99.90
41694;DHT22;27377;50.666;9.150;2022-12-07T17:39:09;4.10;99.90
41694;DHT22;27377;50.666;9.150;2022-12-07T17:41:36;4.00;99.90
41694;DHT22;27377;50.666;9.150;2022-12-07T17:44:21;4.00;99.90
41694;DHT22;27377;50.666;9.150;2022-12-07T17:46:49;4.00;99.90
41694;DHT22;27377;50.666;9.150;2022-12-07T17:49:15;4.00;99.90
41694;DHT22;27377;50.666;9.150;2022-12-07T17:51:41;4.00;99.90
41694;DHT22;27377;50.666;9.150;2022-12-07T17:54:26;4.00;99.90